Time;durP1;ratioP1;P1;durP2;ratioP2;P2;SDS_P1;SDS_P2;PMS_P1;PMS_P2;Temp;Humidity;BMP_temperature;BMP_pressure;BME280_temperature;BME280_humidity;BME280_pressure;Samples;Min_cycle;Max_cycle;Signal;HPM_P1;HPM_P2
2021/04/08 00:04:02;;;;;;;9.20;6.50;;;;;;;-0.21;100.00;99754.23;232904;1203;103222;-72
2021/04/08 00:09:04;;;;;;;11.05;6.35;;;;;;;-0.24;100.00;99756.88;232784;1203;103176;-71
2021/04/08 00:14:07;;;;;;;13.57;7.87;;;;;;;-0.20;100.00;99757.73;232766;1203;103319;-71
2021/04/08 00:19:09;;;;;;;17.20;9.97;;;;;;;-0.27;100.00;99758.66;232820;1203;103575;-72
2021/04/08 00:24:11;;;;;;;11.95;7.40;;;;;;;-0.28;100.00;99755.14;232844;1203;103219;-74
2021/04/08 00:29:13;;;;;;;11.37;7.90;;;;;;;-0.24;100.00;99762.13;232808;1203;103219;-72
2021/04/08 00:34:14;;;;;;;13.35;7.90;;;;;;;-0.22;100.00;99755.14;232820;1203;103226;-70
2021/04/08 00:39:16;;;;;;;9.00;5.65;;;;;;;-0.08;100.00;99762.03;232819;1203;107559;-72
2021/04/08 00:44:17;;;;;;;16.45;8.75;;;;;;;0.05;100.00;99770.66;232846;1203;103185;-71
2021/04/08 00:49:20;;;;;;;9.60;6.27;;;;;;;0.04;100.00;99767.19;232831;1203;103984;-70
2021/04/08 00:54:21;;;;;;;15.55;8.25;;;;;;;0.14;100.00;99775.84;232844;1203;103210;-72
2021/04/08 00:59:23;;;;;;;14.60;8.43;;;;;;;0.17;100.00;99777.57;232829;1203;103210;-74
2021/04/08 01:04:24;;;;;;;13.95;8.60;;;;;;;0.20;100.00;99788.91;232785;1202;103261;-72
2021/04/08 01:09:26;;;;;;;14.85;8.55;;;;;;;0.26;100.00;99788.86;232765;1202;103207;-72
2021/04/08 01:14:27;;;;;;;12.90;8.63;;;;;;;0.14;100.00;99779.33;232805;1203;103259;-72
2021/04/08 01:19:55;;;;;;;16.45;8.80;;;;;;;0.22;100.00;99774.05;232894;1203;103600;-71
2021/04/08 01:25:43;;;;;;;12.23;7.67;;;;;;;0.19;100.00;99781.06;232913;1203;103197;-72
2021/04/08 01:30:50;;;;;;;10.90;8.05;;;;;;;0.26;100.00;99782.75;232860;1203;105878;-72
2021/04/08 01:35:53;;;;;;;12.67;8.73;;;;;;;0.34;100.00;99775.70;233210;1203;103143;-71
2021/04/08 01:40:55;;;;;;;16.40;9.00;;;;;;;0.40;100.00;99766.89;232914;1203;103569;-72
2021/04/08 01:45:59;;;;;;;13.35;8.60;;;;;;;0.45;100.00;99767.75;233024;1201;103230;-72
2021/04/08 01:51:04;;;;;;;12.05;8.85;;;;;;;0.44;100.00;99782.59;233385;1203;103175;-71
2021/04/08 01:56:07;;;;;;;13.40;8.57;;;;;;;0.44;100.00;99787.84;233165;1203;103704;-70
2021/04/08 02:01:09;;;;;;;16.10;9.75;;;;;;;0.43;100.00;99791.34;233703;1203;103229;-71
2021/04/08 02:06:12;;;;;;;15.20;9.20;;;;;;;0.46;100.00;99791.33;233271;1203;103207;-72
2021/04/08 02:11:14;;;;;;;13.38;9.20;;;;;;;0.46;100.00;99796.58;233498;1203;104504;-71
2021/04/08 02:16:20;;;;;;;15.83;9.00;;;;;;;0.46;100.00;99785.20;233243;1201;103175;-73
2021/04/08 02:21:25;;;;;;;15.13;8.97;;;;;;;0.46;100.00;99787.81;233263;1203;103330;-72
2021/04/08 02:26:27;;;;;;;14.10;8.90;;;;;;;0.49;100.00;99797.44;233201;1202;103146;-72
2021/04/08 02:31:30;;;;;;;14.58;8.88;;;;;;;0.37;100.00;99801.88;232931;1203;103219;-72
2021/04/08 02:36:31;;;;;;;12.13;9.47;;;;;;;0.33;100.00;99797.56;232998;1203;103219;-71
2021/04/08 02:41:41;;;;;;;12.60;8.70;;;;;;;0.32;100.00;99798.44;232774;1203;103175;-71
2021/04/08 02:46:43;;;;;;;12.40;10.20;;;;;;;0.32;100.00;99806.30;232948;1203;103280;-72
2021/04/08 02:51:56;;;;;;;13.30;9.38;;;;;;;0.28;100.00;99805.45;232782;1203;103204;-72
2021/04/08 02:57:00;;;;;;;13.30;9.33;;;;;;;0.26;100.00;99801.97;233009;1203;103210;-72
2021/04/08 03:02:10;;;;;;;14.15;10.15;;;;;;;0.19;100.00;99807.27;232949;1203;103226;-72
2021/04/08 03:07:13;;;;;;;11.90;9.38;;;;;;;0.20;100.00;99794.15;233116;1203;103098;-72
2021/04/08 03:12:17;;;;;;;14.10;9.70;;;;;;;0.12;100.00;99802.08;232904;1203;103171;-72
2021/04/08 03:17:24;;;;;;;13.30;8.97;;;;;;;0.14;100.00;99799.44;232980;1201;103654;-70
2021/04/08 03:22:27;;;;;;;15.40;9.80;;;;;;;0.17;100.00;99809.03;232913;1203;104507;-72
2021/04/08 03:27:29;;;;;;;14.23;10.20;;;;;;;0.20;100.00;99815.13;232796;1202;103152;-71
2021/04/08 03:32:31;;;;;;;14.13;9.80;;;;;;;0.24;100.00;99810.73;232823;1202;103574;-71
2021/04/08 03:37:33;;;;;;;15.10;10.00;;;;;;;0.28;100.00;99812.47;232760;1203;103236;-70
2021/04/08 03:42:35;;;;;;;13.78;10.08;;;;;;;0.31;100.00;99815.05;232812;1203;103523;-72
2021/04/08 03:47:41;;;;;;;12.07;10.23;;;;;;;0.38;100.00;99819.36;232884;1203;103213;-70
2021/04/08 03:52:45;;;;;;;16.70;10.30;;;;;;;0.31;100.00;99817.66;232551;1177;114589;-71
2021/04/08 03:57:47;;;;;;;15.30;10.37;;;;;;;0.37;100.00;99817.62;232489;1177;115068;-71
2021/04/08 04:02:49;;;;;;;13.45;11.15;;;;;;;0.40;100.00;99825.47;232607;1177;114520;-72
2021/04/08 04:07:51;;;;;;;12.90;9.83;;;;;;;0.46;100.00;99825.42;232423;1177;114605;-71
2021/04/08 04:12:56;;;;;;;13.73;10.13;;;;;;;0.47;100.00;99824.55;232302;1169;114628;-72
2021/04/08 04:17:59;;;;;;;14.43;11.18;;;;;;;0.51;100.00;99830.64;232674;1177;114612;-72
2021/04/08 04:23:02;;;;;;;13.73;10.78;;;;;;;0.53;100.00;99830.62;232492;1177;115079;-71
2021/04/08 04:28:04;;;;;;;14.05;10.30;;;;;;;0.52;100.00;99839.36;232379;1177;115237;-73
2021/04/08 04:33:06;;;;;;;16.30;11.60;;;;;;;0.53;100.00;99838.48;232880;1177;114855;-72
2021/04/08 04:38:07;;;;;;;11.70;8.90;;;;;;;0.52;100.00;99841.98;232813;1176;114570;-71
2021/04/08 04:43:09;;;;;;;15.60;10.77;;;;;;;0.58;100.00;99841.94;232463;1177;114487;-72
2021/04/08 04:48:11;;;;;;;17.00;12.30;;;;;;;0.56;100.00;99854.22;232345;1177;114705;-72
2021/04/08 04:53:13;;;;;;;16.37;10.63;;;;;;;0.59;100.00;99843.68;233009;1176;114225;-76
2021/04/08 04:58:15;;;;;;;17.43;12.17;;;;;;;0.64;100.00;99847.13;233353;1203;103198;-71
2021/04/08 05:03:16;;;;;;;14.97;11.73;;;;;;;0.61;100.00;99847.17;232990;1203;103181;-71
2021/04/08 05:08:18;;;;;;;15.70;11.63;;;;;;;0.59;100.00;99862.04;232882;1202;103210;-72
2021/04/08 05:13:19;;;;;;;14.10;10.23;;;;;;;0.60;100.00;99861.16;233089;1203;103164;-72
2021/04/08 05:18:21;;;;;;;15.10;11.40;;;;;;;0.60;100.00;99867.27;233361;1201;103181;-71
2021/04/08 05:23:23;;;;;;;17.10;12.10;;;;;;;0.59;100.00;99864.66;233064;1203;104173;-72
2021/04/08 05:28:24;;;;;;;14.80;12.70;;;;;;;0.63;100.00;99867.26;233013;1203;103213;-72
2021/04/08 05:33:25;;;;;;;17.53;12.53;;;;;;;0.69;100.00;99871.59;233145;1203;103149;-73
2021/04/08 05:38:27;;;;;;;17.95;14.20;;;;;;;0.65;100.00;99884.74;233301;1202;103117;-73
2021/04/08 05:43:28;;;;;;;15.43;12.48;;;;;;;0.45;100.00;99899.73;233004;1203;103530;-72
2021/04/08 05:48:30;;;;;;;16.77;12.37;;;;;;;0.24;100.00;99905.11;233059;1203;103166;-73
2021/04/08 05:53:31;;;;;;;14.80;11.70;;;;;;;0.21;100.00;99919.10;233217;1203;103394;-72
2021/04/08 05:58:32;;;;;;;16.43;14.27;;;;;;;0.35;100.00;99916.42;233476;1202;103193;-73
2021/04/08 06:03:34;;;;;;;15.00;13.13;;;;;;;0.44;100.00;99918.97;233151;1203;103142;-73
2021/04/08 06:08:35;;;;;;;15.93;13.10;;;;;;;0.40;100.00;99919.88;233094;1203;103239;-72
2021/04/08 06:13:37;;;;;;;17.75;15.58;;;;;;;0.50;100.00;99933.80;233506;1203;103331;-73
2021/04/08 06:18:38;;;;;;;18.03;15.90;;;;;;;0.63;100.00;99931.98;233401;1203;103143;-72
2021/04/08 06:23:40;;;;;;;22.30;18.53;;;;;;;0.76;100.00;99935.38;233584;1203;103268;-73
2021/04/08 06:28:41;;;;;;;16.58;13.78;;;;;;;0.78;100.00;99947.59;233607;1201;103523;-73
2021/04/08 06:33:45;;;;;;;25.17;20.07;;;;;;;0.89;100.00;99941.41;233111;1202;103227;-73
2021/04/08 06:38:49;;;;;;;25.65;18.75;;;;;;;0.85;100.00;99951.05;233969;1202;103584;-72
2021/04/08 06:43:53;;;;;;;22.15;18.35;;;;;;;0.88;100.00;99966.77;233305;1203;103143;-73
2021/04/08 06:49:09;;;;;;;19.85;17.50;;;;;;;0.91;100.00;99965.89;233223;1203;103596;-72
2021/04/08 06:54:12;;;;;;;22.93;19.10;;;;;;;1.02;100.00;99973.69;233370;1202;103134;-73
2021/04/08 06:59:15;;;;;;;21.90;18.57;;;;;;;1.09;100.00;99976.25;234089;1203;103204;-72
2021/04/08 07:04:17;;;;;;;18.45;15.40;;;;;;;1.10;100.00;99988.49;233222;1203;103281;-73
2021/04/08 07:09:19;;;;;;;17.80;15.57;;;;;;;1.19;100.00;99989.31;232972;1202;103152;-72
2021/04/08 07:14:21;;;;;;;16.20;14.53;;;;;;;1.38;100.00;99996.14;233106;1203;103209;-71
2021/04/08 07:19:22;;;;;;;21.20;18.35;;;;;;;1.54;100.00;99998.64;233418;1203;103139;-72
2021/04/08 07:24:25;;;;;;;16.20;14.50;;;;;;;1.58;100.00;100011.73;233683;1203;103564;-72
2021/04/08 07:29:39;;;;;;;17.90;14.70;;;;;;;1.94;100.00;100026.28;233012;1203;103143;-73
2021/04/08 07:34:47;;;;;;;13.90;12.40;;;;;;;2.02;100.00;100025.30;233489;1203;103134;-73
2021/04/08 07:39:49;;;;;;;15.50;13.03;;;;;;;2.01;100.00;100034.08;233452;1203;103532;-73
2021/04/08 07:44:57;;;;;;;13.90;12.40;;;;;;;2.12;100.00;100049.73;233838;1203;103137;-74
2021/04/08 07:50:05;;;;;;;18.53;13.97;;;;;;;2.21;100.00;100059.28;233100;1203;103312;-75
2021/04/08 07:55:25;;;;;;;13.50;12.10;;;;;;;2.07;100.00;100052.41;233132;1202;103175;-74
2021/04/08 08:00:30;;;;;;;11.95;10.45;;;;;;;1.48;100.00;100077.50;234025;1202;103200;-74
2021/04/08 08:05:37;;;;;;;10.57;8.53;;;;;;;1.55;100.00;100089.71;233436;1203;103254;-73
2021/04/08 08:10:54;;;;;;;12.48;11.28;;;;;;;1.97;100.00;100084.96;232995;1203;103198;-72
2021/04/08 08:15:58;;;;;;;11.93;10.28;;;;;;;2.23;100.00;100086.45;233007;1203;103255;-74
2021/04/08 08:21:14;;;;;;;12.28;10.73;;;;;;;2.29;100.00;100090.78;233469;1203;103139;-72
2021/04/08 08:26:37;;;;;;;11.15;9.70;;;;;;;2.47;100.00;100100.19;233280;1203;103143;-73
2021/04/08 08:32:00;;;;;;;13.53;10.85;;;;;;;2.56;100.00;100107.98;233279;1203;103331;-72
2021/04/08 08:37:03;;;;;;;8.73;6.83;;;;;;;2.47;100.00;100113.34;233164;1202;103143;-73
2021/04/08 08:42:09;;;;;;;10.77;8.07;;;;;;;2.62;100.00;100113.17;233260;1203;103290;-74
2021/04/08 08:47:16;;;;;;;8.30;7.40;;;;;;;2.84;100.00;100115.55;233205;1203;103523;-73
2021/04/08 08:52:24;;;;;;;9.83;7.33;;;;;;;2.84;100.00;100128.71;232986;1201;103214;-73
2021/04/08 08:57:29;;;;;;;6.43;5.80;;;;;;;2.78;100.00;100137.58;233686;1203;103495;-72
2021/04/08 09:02:33;;;;;;;5.13;4.35;;;;;;;2.86;100.00;100153.27;233503;1202;103568;-74
2021/04/08 09:07:40;;;;;;;6.78;5.58;;;;;;;2.84;100.00;100149.77;233564;1203;103373;-73
2021/04/08 09:12:42;;;;;;;;;;;;;;;2.86;100.00;100148.86;233626;1209;103168;-73
2021/04/08 09:17:54;;;;;;;5.70;5.10;;;;;;;2.89;100.00;100152.36;233804;1203;103210;-73
2021/04/08 09:23:01;;;;;;;5.80;5.20;;;;;;;2.97;100.00;100177.70;233748;1202;103523;-73
2021/04/08 09:28:11;;;;;;;4.53;4.05;;;;;;;2.70;100.00;100189.44;234156;1203;103136;-71
2021/04/08 09:33:13;;;;;;;8.30;6.80;;;;;;;2.59;100.00;100184.28;233470;1202;103593;-72
2021/04/08 09:38:16;;;;;;;8.75;7.90;;;;;;;2.43;100.00;100201.11;233430;1202;103264;-74
2021/04/08 09:43:21;;;;;;;8.77;7.87;;;;;;;2.34;100.00;100200.30;233574;1203;103158;-71
2021/04/08 09:48:25;;;;;;;9.53;8.00;;;;;;;2.27;100.00;100210.91;233356;1203;103139;-73
2021/04/08 09:53:50;;;;;;;14.83;13.17;;;;;;;1.98;100.00;100226.02;233162;1202;103212;-73
2021/04/08 09:58:57;;;;;;;11.35;7.75;;;;;;;1.85;100.00;100243.66;233328;1202;103169;-74
2021/04/08 10:04:20;;;;;;;13.93;11.10;;;;;;;1.78;100.00;100241.95;233339;1203;103696;-74
2021/04/08 10:09:21;;;;;;;10.20;8.83;;;;;;;1.79;100.00;100259.47;233732;1206;103609;-75
2021/04/08 10:14:30;;;;;;;5.15;4.65;;;;;;;1.68;100.00;100256.02;233036;1202;103600;-73
2021/04/08 10:19:36;;;;;;;5.57;4.87;;;;;;;1.88;100.00;100255.91;233458;1201;103163;-72
2021/04/08 10:24:43;;;;;;;5.58;4.80;;;;;;;2.18;100.00;100267.09;233933;1202;103574;-73
2021/04/08 10:29:47;;;;;;;7.40;5.17;;;;;;;2.74;100.00;100258.72;233118;1203;103133;-72
2021/04/08 10:34:49;;;;;;;7.85;5.45;;;;;;;3.21;100.00;100269.63;233091;1203;103286;-73
2021/04/08 10:39:51;;;;;;;6.33;3.78;;;;;;;3.23;100.00;100278.36;233635;1202;103110;-73
2021/04/08 10:44:56;;;;;;;6.43;4.95;;;;;;;3.83;100.00;100277.59;234025;1202;103207;-72
2021/04/08 10:49:58;;;;;;;;;;;;;;;4.02;100.00;100279.98;233537;1207;103212;-73
2021/04/08 10:55:05;;;;;;;5.10;4.60;;;;;;;3.61;100.00;100296.34;233798;1201;103150;-72
2021/04/08 11:00:10;;;;;;;5.60;3.60;;;;;;;3.66;100.00;100294.50;233985;1203;105155;-73
2021/04/08 11:05:25;;;;;;;5.85;4.30;;;;;;;4.49;100.00;100296.83;234119;1202;103240;-73
2021/04/08 11:10:32;;;;;;;6.17;4.93;;;;;;;5.37;100.00;100296.98;234149;1201;103150;-73
2021/04/08 11:15:35;;;;;;;3.57;3.17;;;;;;;5.34;100.00;100315.57;234183;1203;103204;-73
2021/04/08 11:20:39;;;;;;;6.55;3.25;;;;;;;4.95;100.00;100308.37;234393;1202;103142;-73
2021/04/08 11:25:41;;;;;;;4.70;4.20;;;;;;;5.09;100.00;100308.09;234122;1202;103207;-75
2021/04/08 11:30:45;;;;;;;5.20;4.48;;;;;;;4.59;100.00;100324.81;233584;1202;103286;-74
2021/04/08 11:35:47;;;;;;;2.85;2.20;;;;;;;3.34;100.00;100340.59;233906;1203;103066;-72
2021/04/08 11:41:09;;;;;;;3.37;2.70;;;;;;;2.68;100.00;100346.50;233792;1203;103293;-73
2021/04/08 11:46:23;;;;;;;3.60;3.30;;;;;;;3.30;100.00;100338.89;234006;1203;103148;-73
2021/04/08 11:51:27;;;;;;;3.85;3.25;;;;;;;5.13;100.00;100348.55;233017;1202;103204;-73
2021/04/08 11:56:34;;;;;;;4.93;4.23;;;;;;;6.71;100.00;100348.73;233065;1203;103127;-75
2021/04/08 12:01:46;;;;;;;6.07;3.90;;;;;;;8.14;97.09;100350.98;233880;1203;103227;-74
2021/04/08 12:06:59;;;;;;;5.70;3.80;;;;;;;8.42;93.76;100347.51;233495;1202;103219;-73
2021/04/08 12:12:01;;;;;;;4.55;4.15;;;;;;;6.62;100.00;100348.98;233539;1203;103121;-74
2021/04/08 12:17:08;;;;;;;4.85;4.05;;;;;;;8.51;93.41;100351.68;233256;1203;103191;-71
2021/04/08 12:22:14;;;;;;;5.05;4.55;;;;;;;9.62;84.35;100350.53;233878;1203;103626;-73
2021/04/08 12:27:20;;;;;;;7.40;5.30;;;;;;;9.97;83.83;100356.33;233412;1202;103517;-75
2021/04/08 12:32:30;;;;;;;5.10;4.40;;;;;;;9.96;84.11;100362.58;233253;1203;103307;-73
2021/04/08 12:37:31;;;;;;;6.00;4.70;;;;;;;11.62;79.79;100371.81;233209;1202;103206;-74
2021/04/08 12:42:33;;;;;;;4.30;3.90;;;;;;;11.00;75.00;100364.67;233569;1201;103146;-75
2021/04/08 12:47:34;;;;;;;4.17;3.60;;;;;;;10.83;74.11;100369.86;234227;1203;103802;-73
2021/04/08 12:52:36;;;;;;;4.63;3.73;;;;;;;11.07;73.43;100369.75;234056;1203;103516;-73
2021/04/08 12:57:38;;;;;;;3.63;2.93;;;;;;;9.92;73.77;100368.06;233831;1203;104392;-70
2021/04/08 13:02:40;;;;;;;3.55;3.23;;;;;;;10.64;68.11;100373.27;233387;1202;103136;-74
2021/04/08 13:07:42;;;;;;;2.90;2.68;;;;;;;10.10;71.25;100371.83;233597;1203;103172;-73
2021/04/08 13:12:44;;;;;;;3.10;2.70;;;;;;;10.98;65.28;100371.89;233211;1203;103232;-73
2021/04/08 13:17:50;;;;;;;2.25;1.90;;;;;;;11.10;53.74;100386.48;233209;1202;103162;-72
2021/04/08 13:22:52;;;;;;;3.10;2.03;;;;;;;8.32;60.34;100393.84;233597;1203;103264;-73
2021/04/08 13:27:54;;;;;;;2.70;2.50;;;;;;;6.86;71.86;100417.25;233692;1201;103555;-73
2021/04/08 13:32:56;;;;;;;3.55;2.80;;;;;;;5.61;80.85;100395.24;233176;1203;103149;-75
2021/04/08 13:37:59;;;;;;;3.33;3.07;;;;;;;5.35;86.52;100393.98;233714;1202;103631;-72
2021/04/08 13:43:01;;;;;;;4.10;3.40;;;;;;;5.31;86.92;100408.13;233327;1202;103206;-72
2021/04/08 13:48:03;;;;;;;4.40;4.00;;;;;;;5.51;85.47;100416.56;234054;1201;103529;-73
2021/04/08 13:53:04;;;;;;;5.30;4.75;;;;;;;6.62;88.46;100431.09;233178;1202;103215;-73
2021/04/08 13:58:06;;;;;;;4.63;3.90;;;;;;;9.08;73.09;100413.59;233061;1203;103188;-73
2021/04/08 14:03:07;;;;;;;4.60;4.20;;;;;;;6.96;81.99;100420.55;233162;1203;103555;-72
2021/04/08 14:08:09;;;;;;;4.95;3.35;;;;;;;6.05;83.68;100441.14;233507;1202;103488;-72
2021/04/08 14:13:10;;;;;;;5.65;3.40;;;;;;;5.40;88.79;100456.42;233205;1203;103153;-73
2021/04/08 14:18:12;;;;;;;2.77;2.50;;;;;;;5.61;89.98;100470.15;233220;1203;103204;-73
2021/04/08 14:23:14;;;;;;;3.68;3.38;;;;;;;5.31;91.30;100476.86;233595;1202;103193;-71
2021/04/08 14:28:15;;;;;;;4.20;3.80;;;;;;;5.30;94.71;100460.14;233741;1202;103322;-73
2021/04/08 14:33:17;;;;;;;6.85;5.50;;;;;;;5.20;92.76;100472.64;233619;1203;103203;-73
2021/04/08 14:38:19;;;;;;;4.77;4.00;;;;;;;4.98;95.28;100468.59;233662;1203;103187;-74
2021/04/08 14:43:21;;;;;;;6.17;4.30;;;;;;;7.21;82.93;100480.03;233836;1202;103194;-75
2021/04/08 14:48:22;;;;;;;8.30;5.18;;;;;;;8.57;73.34;100471.05;233903;1202;103210;-72
2021/04/08 14:53:25;;;;;;;6.85;6.10;;;;;;;9.45;69.05;100480.64;233955;1203;104447;-72
2021/04/08 14:58:27;;;;;;;5.15;4.65;;;;;;;9.84;64.38;100482.85;233179;1203;103215;-73
2021/04/08 15:03:28;;;;;;;4.95;3.80;;;;;;;8.52;65.60;100495.09;233277;1203;103239;-72
2021/04/08 15:08:30;;;;;;;3.70;3.28;;;;;;;9.06;65.98;100498.75;233442;1202;103226;-73
2021/04/08 15:13:31;;;;;;;4.23;3.38;;;;;;;8.48;64.96;100503.19;233414;1202;103501;-74
2021/04/08 15:18:33;;;;;;;5.20;4.67;;;;;;;8.77;65.96;100495.22;233582;1203;103229;-73
2021/04/08 15:23:34;;;;;;;5.43;4.73;;;;;;;8.50;66.93;100504.89;232901;1203;103210;-72
2021/04/08 15:28:36;;;;;;;8.43;6.00;;;;;;;8.29;69.12;100514.33;233077;1177;114772;-73
2021/04/08 15:33:37;;;;;;;6.30;4.55;;;;;;;7.55;71.25;100511.89;233023;1176;114491;-75
2021/04/08 15:38:38;;;;;;;7.37;6.30;;;;;;;7.57;70.92;100525.11;233198;1177;114408;-74
2021/04/08 15:43:40;;;;;;;7.50;5.57;;;;;;;7.14;71.16;100527.91;233036;1176;114475;-72
2021/04/08 15:48:41;;;;;;;7.30;5.53;;;;;;;6.89;74.79;100542.64;233639;1176;114788;-74
2021/04/08 15:53:43;;;;;;;5.90;4.70;;;;;;;6.44;74.62;100551.55;232993;1177;114390;-71
2021/04/08 15:58:45;;;;;;;6.48;4.85;;;;;;;6.32;76.02;100553.52;232499;1170;114449;-71
2021/04/08 16:03:47;;;;;;;7.25;6.30;;;;;;;6.16;77.94;100568.83;232470;1176;114198;-72
2021/04/08 16:08:49;;;;;;;5.65;4.70;;;;;;;6.15;78.13;100567.08;232528;1177;114120;-74
2021/04/08 16:13:50;;;;;;;7.30;5.30;;;;;;;6.03;79.12;100576.12;233246;1176;114119;-72
2021/04/08 16:18:52;;;;;;;7.03;4.37;;;;;;;5.95;75.89;100579.78;232774;1176;114599;-74
2021/04/08 16:23:54;;;;;;;4.53;3.30;;;;;;;6.44;72.99;100591.27;233396;1176;114423;-73
2021/04/08 16:28:56;;;;;;;3.93;2.97;;;;;;;6.03;73.82;100588.49;233530;1176;114153;-73
2021/04/08 16:33:58;;;;;;;4.05;3.40;;;;;;;6.01;74.59;100595.58;233729;1176;114233;-74
2021/04/08 16:39:00;;;;;;;11.10;7.57;;;;;;;5.81;73.92;100604.70;233450;1177;114132;-72
2021/04/08 16:44:02;;;;;;;5.00;3.27;;;;;;;5.76;76.72;100609.22;233371;1176;115697;-75
2021/04/08 16:49:04;;;;;;;8.45;5.90;;;;;;;5.52;84.52;100619.28;233639;1176;114236;-74
2021/04/08 16:54:06;;;;;;;8.57;6.13;;;;;;;5.40;87.71;100630.91;233539;1176;114661;-72
2021/04/08 16:59:07;;;;;;;7.80;5.95;;;;;;;5.24;89.86;100639.98;233132;1176;114222;-74
2021/04/08 17:04:09;;;;;;;8.80;7.20;;;;;;;5.13;92.02;100642.77;232980;1177;114209;-74
2021/04/08 17:09:11;;;;;;;10.15;6.75;;;;;;;5.03;92.48;100649.95;232916;1177;114739;-73
2021/04/08 17:14:12;;;;;;;10.57;7.80;;;;;;;5.00;94.57;100667.61;233360;1177;115651;-73
2021/04/08 17:19:15;;;;;;;7.40;6.40;;;;;;;4.94;94.96;100669.41;233112;1176;114427;-74
2021/04/08 17:24:16;;;;;;;9.90;6.90;;;;;;;4.87;96.25;100667.73;233200;1177;115845;-73
2021/04/08 17:29:18;;;;;;;9.73;6.85;;;;;;;4.84;95.82;100683.64;233306;1176;114554;-77
2021/04/08 17:34:19;;;;;;;11.55;8.65;;;;;;;4.78;96.31;100691.64;232879;1176;116456;-73
2021/04/08 17:39:21;;;;;;;10.00;7.88;;;;;;;4.68;97.49;100705.81;232780;1177;114456;-73
2021/04/08 17:44:22;;;;;;;12.90;7.97;;;;;;;4.60;96.05;100719.98;233322;1176;115755;-74
2021/04/08 17:49:24;;;;;;;9.93;7.00;;;;;;;4.51;96.84;100733.26;234003;1177;114530;-71
2021/04/08 17:54:25;;;;;;;9.75;7.75;;;;;;;4.50;97.18;100736.81;233313;1177;114150;-73
2021/04/08 17:59:27;;;;;;;10.00;7.53;;;;;;;4.47;98.42;100747.39;233152;1177;114421;-71
2021/04/08 18:04:28;;;;;;;10.05;7.45;;;;;;;4.44;100.00;100750.08;233499;1177;114640;-72
2021/04/08 18:09:30;;;;;;;11.93;7.10;;;;;;;4.31;100.00;100773.91;233082;1177;114539;-72
2021/04/08 18:14:31;;;;;;;7.35;6.05;;;;;;;4.03;100.00;100788.20;233116;1176;114634;-71
2021/04/08 18:19:33;;;;;;;7.05;5.68;;;;;;;3.90;100.00;100804.11;232820;1176;114477;-73
2021/04/08 18:24:35;;;;;;;6.63;5.50;;;;;;;3.45;100.00;100830.69;233022;1177;114276;-71
2021/04/08 18:29:36;;;;;;;4.88;4.08;;;;;;;2.73;100.00;100822.95;232891;1177;114701;-73
2021/04/08 18:34:38;;;;;;;5.33;4.10;;;;;;;2.83;100.00;100816.78;232597;1176;114581;-73
2021/04/08 18:39:39;;;;;;;5.20;4.60;;;;;;;2.87;100.00;100813.28;233181;1177;114966;-73
2021/04/08 18:44:41;;;;;;;10.03;6.60;;;;;;;2.99;100.00;100818.52;233250;1177;114310;-73
2021/04/08 18:49:42;;;;;;;11.00;7.05;;;;;;;3.09;100.00;100824.65;233253;1177;114830;-75
2021/04/08 18:54:44;;;;;;;8.40;6.80;;;;;;;3.14;100.00;100832.55;233256;1177;114516;-75
2021/04/08 18:59:45;;;;;;;7.75;6.35;;;;;;;3.15;100.00;100829.89;233411;1176;114742;-74
2021/04/08 19:04:47;;;;;;;9.65;7.13;;;;;;;3.03;100.00;100838.70;233543;1177;114486;-73
2021/04/08 19:09:48;;;;;;;13.93;8.13;;;;;;;3.21;100.00;100838.69;233400;1177;114698;-71
2021/04/08 19:14:50;;;;;;;9.20;7.80;;;;;;;3.16;100.00;100843.97;233559;1177;114862;-76
2021/04/08 19:19:51;;;;;;;8.55;6.40;;;;;;;3.08;100.00;100853.63;233273;1177;114593;-72
2021/04/08 19:24:53;;;;;;;7.17;4.40;;;;;;;2.98;100.00;100853.64;233422;1177;114525;-73
2021/04/08 19:29:55;;;;;;;5.35;4.55;;;;;;;3.00;100.00;100856.27;233558;1176;114713;-76
2021/04/08 19:34:56;;;;;;;5.87;4.17;;;;;;;2.95;100.00;100858.93;233021;1177;114351;-75
2021/04/08 19:39:58;;;;;;;6.20;4.40;;;;;;;2.92;100.00;100861.55;233258;1177;114288;-76
2021/04/08 19:44:59;;;;;;;4.07;2.97;;;;;;;2.89;100.00;100864.17;233644;1177;114813;-72
2021/04/08 19:50:02;;;;;;;5.65;3.20;;;;;;;2.97;100.00;100870.31;234027;1177;114777;-72
2021/04/08 19:55:05;;;;;;;5.63;3.47;;;;;;;2.83;100.00;100887.88;235118;1177;114299;-74
2021/04/08 20:00:09;;;;;;;5.15;3.70;;;;;;;2.95;100.00;100869.47;234205;1176;114470;-73
2021/04/08 20:05:11;;;;;;;5.40;4.05;;;;;;;3.05;100.00;100880.86;233541;1176;114661;-72
2021/04/08 20:10:13;;;;;;;6.53;3.60;;;;;;;2.94;100.00;100893.14;233663;1176;114959;-73
2021/04/08 20:15:16;;;;;;;5.23;4.17;;;;;;;3.06;100.00;100892.27;233558;1177;115645;-73
2021/04/08 20:20:17;;;;;;;8.25;4.98;;;;;;;3.09;100.00;100887.01;233161;1177;114432;-72
2021/04/08 20:25:19;;;;;;;6.58;4.20;;;;;;;2.90;100.00;100887.00;233251;1176;115210;-72
2021/04/08 20:30:22;;;;;;;8.10;5.40;;;;;;;3.09;100.00;100876.47;233090;1176;114416;-73
2021/04/08 20:35:24;;;;;;;9.90;6.40;;;;;;;3.13;100.00;100889.64;232994;1176;114418;-73
2021/04/08 20:40:25;;;;;;;7.85;4.40;;;;;;;2.91;100.00;100894.03;232774;1177;114372;-73
2021/04/08 20:45:27;;;;;;;10.70;6.10;;;;;;;2.73;100.00;100894.91;233123;1170;114538;-73
2021/04/08 20:50:28;;;;;;;10.60;6.60;;;;;;;2.77;100.00;100895.78;233232;1176;114547;-73
2021/04/08 20:55:30;;;;;;;9.20;5.70;;;;;;;2.73;100.00;100909.84;232465;1177;114533;-73
2021/04/08 21:00:32;;;;;;;11.80;6.80;;;;;;;2.67;100.00;100922.13;232531;1177;114292;-73
2021/04/08 21:05:33;;;;;;;10.73;6.43;;;;;;;2.59;100.00;100918.60;232838;1177;114648;-73
2021/04/08 21:10:35;;;;;;;8.50;5.55;;;;;;;2.59;100.00;100922.97;232782;1177;114508;-71
2021/04/08 21:15:37;;;;;;;12.07;7.67;;;;;;;2.53;100.00;100929.13;233039;1177;114383;-72
2021/04/08 21:20:38;;;;;;;10.65;7.60;;;;;;;2.49;100.00;100933.50;232517;1177;114920;-74
2021/04/08 21:25:40;;;;;;;14.17;7.80;;;;;;;2.35;100.00;100941.35;232541;1177;114820;-72
2021/04/08 21:30:45;;;;;;;10.25;6.30;;;;;;;2.41;100.00;100945.77;233100;1177;115075;-73
2021/04/08 21:35:46;;;;;;;10.63;5.50;;;;;;;2.33;100.00;100950.98;233700;1201;103072;-71
2021/04/08 21:40:55;;;;;;;13.67;6.67;;;;;;;2.39;100.00;100958.92;233094;1203;103220;-72
2021/04/08 21:45:57;;;;;;;15.13;8.60;;;;;;;2.32;100.00;100967.67;233181;1203;103737;-73
2021/04/08 21:50:58;;;;;;;13.63;6.58;;;;;;;2.40;100.00;100959.80;233494;1203;103143;-71
2021/04/08 21:56:00;;;;;;;11.40;7.95;;;;;;;2.45;100.00;100967.70;233406;1202;103212;-72
2021/04/08 22:01:02;;;;;;;13.20;8.40;;;;;;;2.48;100.00;100970.32;233426;1202;103194;-72
2021/04/08 22:06:04;;;;;;;13.43;8.43;;;;;;;2.54;100.00;100970.33;233378;1202;103216;-72
2021/04/08 22:11:05;;;;;;;10.55;7.75;;;;;;;2.58;100.00;100972.12;233295;1202;103309;-73
2021/04/08 22:16:07;;;;;;;12.77;7.97;;;;;;;2.54;100.00;100978.23;234095;1203;103214;-73
2021/04/08 22:21:09;;;;;;;15.75;11.00;;;;;;;2.52;100.00;100986.13;234079;1203;103213;-72
2021/04/08 22:26:10;;;;;;;18.93;9.73;;;;;;;2.52;100.00;100985.27;233977;1203;103146;-73
2021/04/08 22:31:12;;;;;;;14.27;8.83;;;;;;;2.53;100.00;100981.77;234233;1203;103204;-73
2021/04/08 22:36:17;;;;;;;14.77;9.93;;;;;;;2.57;100.00;100983.52;234816;1202;103568;-71
2021/04/08 22:41:18;;;;;;;17.53;9.90;;;;;;;2.53;100.00;100987.03;235562;1202;103075;-72
2021/04/08 22:46:20;;;;;;;13.65;8.90;;;;;;;2.58;100.00;100984.38;233594;1201;103174;-73
2021/04/08 22:51:22;;;;;;;14.07;7.93;;;;;;;2.57;100.00;100980.02;233681;1203;103222;-71
2021/04/08 22:56:23;;;;;;;13.45;8.25;;;;;;;2.49;100.00;100991.41;233427;1202;103142;-72